Time;durP1;ratioP1;P1;durP2;ratioP2;P2;SDS_P1;SDS_P2;PMS_P1;PMS_P2;Temp;Humidity;BMP_temperature;BMP_pressure;BME280_temperature;BME280_humidity;BME280_pressure;Samples;Min_cycle;Max_cycle;Signal;HPM_P1;HPM_P2
2022/02/03 00:10:22;;;;;;;11.10;5.80;;;;;;;3.74;66.76;98896.10;221282;1277;141545;-58
2022/02/03 00:26:16;;;;;;;8.30;4.90;;;;;;;3.54;66.65;98935.03;221044;1277;138875;-58
2022/02/03 00:31:41;;;;;;;9.50;5.10;;;;;;;3.55;66.54;98943.60;220737;1279;141031;-57
2022/02/03 00:37:08;;;;;;;8.30;5.00;;;;;;;3.63;66.81;98957.35;220631;1279;141223;-58
2022/02/03 00:52:57;;;;;;;9.30;5.10;;;;;;;3.66;66.47;98989.70;220973;1276;138548;-57
2022/02/03 00:58:03;;;;;;;9.70;5.50;;;;;;;3.62;66.58;98990.18;220870;1280;140057;-57
2022/02/03 01:03:11;;;;;;;11.40;5.30;;;;;;;3.55;66.80;98993.23;220991;1277;138507;-55
2022/02/03 01:08:22;;;;;;;10.40;6.30;;;;;;;3.50;66.65;99000.59;221285;1277;139409;-57
2022/02/03 01:19:06;;;;;;;10.10;5.50;;;;;;;3.46;66.69;99003.00;221236;1277;140554;-59
2022/02/03 01:45:47;;;;;;;13.50;7.70;;;;;;;3.43;67.03;99020.15;221243;1277;139375;-63
2022/02/03 01:56:07;;;;;;;12.70;6.60;;;;;;;3.34;67.59;99028.13;220504;1280;139415;-58
2022/02/03 02:01:13;;;;;;;11.90;6.60;;;;;;;3.32;67.50;99032.05;220912;1279;139552;-58
2022/02/03 02:06:38;;;;;;;10.80;6.60;;;;;;;3.36;67.48;99034.39;220595;1279;140649;-57
2022/02/03 02:12:02;;;;;;;9.20;5.70;;;;;;;3.35;67.37;99043.38;220790;1279;138410;-60
2022/02/03 02:43:38;;;;;;;4.40;2.90;;;;;;;3.03;67.75;99091.53;220695;1280;138975;-56
2022/02/03 02:49:09;;;;;;;5.70;2.70;;;;;;;3.02;68.06;99101.57;220910;1278;138953;-56
2022/02/03 02:55:08;;;;;;;4.20;2.40;;;;;;;3.05;68.25;99108.82;220681;1280;138524;-57
2022/02/03 03:01:46;;;;;;;4.40;2.40;;;;;;;3.12;68.02;99112.30;220722;1280;139570;-60
2022/02/03 03:32:41;;;;;;;4.80;3.20;;;;;;;2.88;68.17;99158.91;220656;1280;140680;-58
2022/02/03 03:37:47;;;;;;;5.90;2.90;;;;;;;2.92;68.18;99164.59;220281;1280;139300;-60
2022/02/03 03:43:09;;;;;;;7.30;2.80;;;;;;;2.93;68.18;99170.89;220827;1280;138764;-59
2022/02/03 03:48:16;;;;;;;5.10;2.70;;;;;;;2.95;68.03;99181.15;220988;1277;138530;-59
2022/02/03 03:53:37;;;;;;;3.70;2.70;;;;;;;2.99;67.95;99192.23;220975;1277;138654;-59
2022/02/03 04:42:41;;;;;;;4.90;2.90;;;;;;;3.01;66.92;99252.84;220844;1279;138890;-58
2022/02/03 05:05:05;;;;;;;3.80;2.40;;;;;;;3.23;66.41;99275.70;219769;1281;139740;-57
2022/02/03 05:11:29;;;;;;;5.30;2.70;;;;;;;3.21;66.08;99279.08;220788;1280;139744;-59
2022/02/03 05:16:46;;;;;;;59.40;40.60;;;;;;;3.14;66.03;99287.16;220733;1279;139269;-58
2022/02/03 05:45:00;;;;;;;7.60;3.80;;;;;;;2.97;65.47;99310.05;221054;1279;139010;-59
2022/02/03 06:22:21;;;;;;;6.50;2.90;;;;;;;2.67;65.59;99361.66;220881;1279;138796;-58
2022/02/03 06:27:38;;;;;;;5.70;2.60;;;;;;;2.62;65.54;99376.50;220854;1277;140759;-58
2022/02/03 06:32:42;;;;;;;4.00;2.60;;;;;;;2.54;65.15;99388.42;220666;1279;139341;-58
2022/02/03 06:37:47;;;;;;;6.10;3.40;;;;;;;2.48;65.31;99403.61;220822;1279;139420;-58
2022/02/03 06:42:55;;;;;;;5.10;2.80;;;;;;;2.40;65.34;99412.04;220653;1280;138903;-58
2022/02/03 06:48:14;;;;;;;6.00;3.00;;;;;;;2.38;65.35;99414.53;220878;1279;138734;-57
2022/02/03 06:53:21;;;;;;;4.30;2.40;;;;;;;2.41;65.40;99414.81;220686;1280;138945;-58
2022/02/03 07:03:31;;;;;;;4.30;2.20;;;;;;;2.46;65.04;99425.71;220843;1279;139320;-57
2022/02/03 07:08:36;;;;;;;5.70;2.40;;;;;;;2.52;65.08;99428.77;220858;1279;138578;-56
2022/02/03 07:13:38;;;;;;;3.60;2.40;;;;;;;2.54;64.99;99430.10;220969;1277;138349;-59
2022/02/03 07:18:41;;;;;;;3.00;2.20;;;;;;;2.56;64.94;99433.57;220878;1277;140890;-58
2022/02/03 07:23:44;;;;;;;6.20;2.10;;;;;;;2.60;64.89;99434.85;220935;1277;138891;-59
2022/02/03 07:28:48;;;;;;;8.20;2.50;;;;;;;2.58;64.63;99443.33;220908;1279;139113;-58
2022/02/03 07:33:51;;;;;;;4.40;2.40;;;;;;;2.55;64.41;99448.29;221020;1279;139312;-58
2022/02/03 07:38:54;;;;;;;10.40;5.30;;;;;;;2.54;64.17;99455.15;220735;1279;138759;-56
2022/02/03 07:43:57;;;;;;;5.90;2.80;;;;;;;2.47;63.85;99472.11;220757;1279;138595;-57
2022/02/03 07:49:04;;;;;;;7.70;3.70;;;;;;;2.45;64.09;99484.23;220822;1279;138768;-59
2022/02/03 07:54:09;;;;;;;9.10;4.10;;;;;;;2.47;64.39;99486.31;220861;1279;139400;-58
2022/02/03 07:59:12;;;;;;;5.50;3.50;;;;;;;2.47;64.44;99491.54;220724;1280;138714;-56
2022/02/03 08:04:17;;;;;;;8.70;4.20;;;;;;;2.48;64.47;99499.59;220978;1279;138625;-57
2022/02/03 08:09:28;;;;;;;7.60;3.90;;;;;;;2.53;64.37;99492.82;220657;1277;139140;-57
2022/02/03 08:14:37;;;;;;;8.10;4.40;;;;;;;2.60;64.32;99488.98;220907;1277;138844;-57
2022/02/03 08:19:51;;;;;;;8.50;4.40;;;;;;;2.67;64.35;99483.20;220980;1277;139492;-57
2022/02/03 08:45:59;;;;;;;10.80;3.40;;;;;;;2.86;63.82;99470.17;220628;1279;138825;-55
2022/02/03 08:51:06;;;;;;;5.20;3.20;;;;;;;2.77;63.83;99460.04;221079;1277;139290;-55
2022/02/03 09:39:00;;;;;;;8.40;4.10;;;;;;;3.28;63.30;99461.92;220922;1276;138644;-60
2022/02/03 09:54:58;;;;;;;9.80;4.90;;;;;;;3.52;63.52;99437.10;220825;1277;140234;-57
2022/02/03 10:00:33;;;;;;;9.00;4.80;;;;;;;3.54;63.37;99428.80;220508;1278;138981;-58
2022/02/03 10:05:45;;;;;;;9.60;5.40;;;;;;;3.52;63.29;99422.02;220050;1277;139500;-58
2022/02/03 10:10:49;;;;;;;11.40;6.00;;;;;;;3.56;63.35;99420.86;220791;1279;139712;-58
2022/02/03 10:16:05;;;;;;;12.10;6.50;;;;;;;3.59;63.46;99411.84;220812;1279;139819;-58
2022/02/03 10:21:17;;;;;;;12.50;6.10;;;;;;;3.63;63.39;99408.92;220575;1277;139933;-57
2022/02/03 10:26:20;;;;;;;14.10;7.30;;;;;;;3.65;63.30;99403.25;220755;1279;139667;-56
2022/02/03 10:31:25;;;;;;;16.50;7.10;;;;;;;3.62;63.18;99400.35;220706;1279;139141;-56
2022/02/03 10:48:06;;;;;;;16.90;8.90;;;;;;;3.61;63.63;99381.77;220496;1277;138707;-58
2022/02/03 11:13:19;;;;;;;16.70;7.40;;;;;;;3.84;63.88;99372.71;220689;1279;139405;-57
2022/02/03 11:18:25;;;;;;;22.90;11.00;;;;;;;3.88;63.89;99371.16;220626;1279;140317;-59
2022/02/03 11:50:28;;;;;;;19.40;7.90;;;;;;;4.26;63.96;99354.75;220927;1277;138980;-58
2022/02/03 12:12:39;;;;;;;23.00;9.40;;;;;;;4.74;63.49;99334.38;220060;1279;139593;-57
2022/02/03 12:17:18;;;;;;;17.90;9.30;;;;;;;4.78;63.41;99332.51;220769;1279;139119;-58
2022/02/03 12:22:42;;;;;;;25.90;9.60;;;;;;;4.79;63.24;99337.56;221153;1277;139355;-57
2022/02/03 12:43:27;;;;;;;22.60;10.50;;;;;;;4.82;62.82;99332.88;220910;1278;139350;-56
2022/02/03 12:48:37;;;;;;;25.30;9.70;;;;;;;4.81;63.29;99325.36;220858;1277;138833;-56
2022/02/03 12:53:40;;;;;;;20.70;8.90;;;;;;;4.93;63.06;99318.45;220879;1278;139346;-56
2022/02/03 12:58:45;;;;;;;19.30;8.60;;;;;;;5.13;63.23;99308.08;221008;1278;139002;-56
2022/02/03 13:03:51;;;;;;;20.40;9.10;;;;;;;5.38;63.17;99313.35;220942;1279;138538;-55
2022/02/03 13:08:59;;;;;;;23.10;9.30;;;;;;;5.63;62.85;99312.05;220876;1277;139637;-56
2022/02/03 13:14:21;;;;;;;17.10;6.70;;;;;;;5.64;62.25;99311.11;220911;1279;140011;-56
2022/02/03 13:20:15;;;;;;;18.00;7.20;;;;;;;5.60;62.40;99307.95;221080;1277;138614;-56
2022/02/03 13:30:11;;;;;;;17.40;6.40;;;;;;;5.33;61.89;99302.45;220716;1278;142380;-56
2022/02/03 13:35:43;;;;;;;17.40;6.30;;;;;;;5.22;61.73;99293.15;220730;1280;139773;-56
2022/02/03 13:40:46;;;;;;;17.50;6.60;;;;;;;5.15;62.10;99287.09;220953;1279;138616;-56
2022/02/03 13:45:52;;;;;;;17.20;5.60;;;;;;;5.12;61.88;99282.27;220835;1280;142005;-56
2022/02/03 13:50:59;;;;;;;20.20;6.40;;;;;;;5.08;62.09;99287.52;220419;1279;139434;-56
2022/02/03 14:18:12;;;;;;;17.20;5.90;;;;;;;5.03;62.04;99264.66;220671;1279;139401;-56
2022/02/03 14:28:21;;;;;;;;;;;;;;;5.26;61.78;99243.23;220759;1279;141401;-56
2022/02/03 14:33:31;;;;;;;13.60;4.80;;;;;;;5.31;61.69;99239.02;220944;1280;126256;-57
2022/02/03 14:43:44;;;;;;;17.10;5.50;;;;;;;5.39;61.19;99226.02;220810;1279;138615;-56
2022/02/03 14:49:01;;;;;;;12.50;4.80;;;;;;;5.39;60.86;99220.23;220974;1277;139715;-59
2022/02/03 14:59:08;;;;;;;18.80;5.30;;;;;;;5.41;60.88;99222.25;220951;1277;139903;-55
2022/02/03 15:04:23;;;;;;;16.90;5.20;;;;;;;5.40;60.54;99223.69;221251;1277;139936;-59
2022/02/03 15:14:48;;;;;;;16.20;5.50;;;;;;;5.32;59.99;99214.70;220734;1279;140053;-56
2022/02/03 15:19:51;;;;;;;15.60;5.70;;;;;;;5.26;59.97;99215.95;220849;1278;138695;-55
2022/02/03 15:24:54;;;;;;;18.70;5.30;;;;;;;5.25;60.15;99218.48;220679;1280;139416;-56
2022/02/03 15:30:02;;;;;;;12.70;6.10;;;;;;;5.20;59.88;99222.34;220793;1278;139279;-56
2022/02/03 15:35:09;;;;;;;18.10;6.20;;;;;;;5.15;59.51;99220.44;220806;1277;139239;-58
2022/02/03 15:40:18;;;;;;;14.60;5.90;;;;;;;5.09;59.47;99222.05;220410;1277;141739;-56
2022/02/03 15:45:21;;;;;;;21.00;7.10;;;;;;;5.04;59.73;99219.98;220836;1279;138365;-56
2022/02/03 16:17:11;;;;;;;20.90;6.80;;;;;;;4.73;59.65;99196.29;220373;1280;138962;-58
2022/02/03 16:54:39;;;;;;;17.70;7.20;;;;;;;4.47;59.97;99186.11;220648;1277;139201;-59
2022/02/03 16:59:53;;;;;;;16.10;7.20;;;;;;;4.44;59.54;99186.21;220845;1279;139084;-57
2022/02/03 17:05:17;;;;;;;15.80;7.20;;;;;;;4.42;59.52;99180.34;220781;1278;139601;-58
2022/02/03 17:10:20;;;;;;;20.00;8.40;;;;;;;4.39;59.71;99173.08;220895;1280;138823;-59
2022/02/03 17:15:27;;;;;;;51.20;29.30;;;;;;;4.40;59.88;99173.72;220724;1278;139444;-59
2022/02/03 17:20:34;;;;;;;23.00;9.20;;;;;;;4.47;60.14;99163.80;220813;1279;139575;-59
2022/02/03 17:26:07;;;;;;;18.10;8.30;;;;;;;4.49;59.67;99167.80;220298;1280;138542;-59
2022/02/03 18:03:58;;;;;;;26.30;12.00;;;;;;;4.08;60.02;99141.84;220607;1280;138902;-59
2022/02/03 18:35:10;;;;;;;20.80;11.10;;;;;;;3.96;59.82;99117.12;220688;1279;139972;-58
2022/02/03 18:51:16;;;;;;;16.60;8.20;;;;;;;3.84;59.77;99106.66;220796;1278;139219;-56
2022/02/03 18:56:33;;;;;;;17.80;8.40;;;;;;;3.81;59.75;99106.92;220575;1280;138445;-57
2022/02/03 19:01:52;;;;;;;141.30;92.00;;;;;;;3.79;59.94;99101.91;220494;1279;138371;-57
2022/02/03 20:01:13;;;;;;;26.90;10.00;;;;;;;3.95;59.73;99043.08;220309;1280;138442;-56
2022/02/03 20:10:48;;;;;;;27.00;12.10;;;;;;;4.30;60.24;99028.31;220504;1280;138967;-58
2022/02/03 20:15:52;;;;;;;26.40;10.20;;;;;;;4.24;59.30;99028.55;220808;1280;141126;-56
2022/02/03 20:20:58;;;;;;;22.00;9.60;;;;;;;4.14;59.20;99024.85;220655;1280;138942;-57
2022/02/03 20:26:01;;;;;;;;;;;;;;;4.08;59.27;99019.48;220534;1279;138970;-55
2022/02/03 20:31:06;;;;;;;20.00;9.50;;;;;;;4.02;59.31;99009.65;221227;1277;124837;-58
2022/02/03 20:36:10;;;;;;;20.40;10.30;;;;;;;3.99;59.36;99005.56;221261;1277;138875;-57
2022/02/03 20:41:14;;;;;;;20.90;10.00;;;;;;;3.98;59.26;99001.20;220939;1278;139055;-57
2022/02/03 20:46:18;;;;;;;69.00;38.70;;;;;;;3.98;59.16;98997.86;220556;1279;210503;-58
2022/02/03 20:51:22;;;;;;;31.60;13.30;;;;;;;4.09;59.88;98996.95;220757;1279;139778;-57
2022/02/03 20:56:25;;;;;;;23.00;11.10;;;;;;;4.12;59.46;98995.46;220818;1279;139567;-57
2022/02/03 21:01:32;;;;;;;23.10;11.10;;;;;;;4.09;59.35;98991.33;220742;1279;139070;-57
2022/02/03 21:06:35;;;;;;;20.90;10.00;;;;;;;4.05;59.42;98990.45;220772;1279;139884;-57
2022/02/03 21:11:38;;;;;;;21.00;10.30;;;;;;;4.00;59.22;98992.52;220621;1279;140367;-57
2022/02/03 21:16:50;;;;;;;23.20;10.30;;;;;;;3.98;59.43;98992.60;220756;1280;139765;-57
2022/02/03 21:21:53;;;;;;;22.20;9.80;;;;;;;4.00;59.47;98988.30;220795;1278;139897;-57
2022/02/03 21:26:59;;;;;;;21.10;10.50;;;;;;;4.02;59.45;98980.89;220672;1280;138883;-57
2022/02/03 21:32:02;;;;;;;;;;;;;;;3.98;59.47;98979.81;220741;1277;139801;-57
2022/02/03 21:37:05;;;;;;;24.70;10.30;;;;;;;3.93;59.54;98980.50;220827;1279;124943;-59
2022/02/03 21:42:09;;;;;;;22.10;10.80;;;;;;;3.91;59.57;98977.42;220720;1279;140137;-56
2022/02/03 21:47:12;;;;;;;19.20;10.30;;;;;;;3.91;59.41;98975.84;220849;1279;140541;-56
2022/02/03 21:52:20;;;;;;;21.80;11.20;;;;;;;3.90;59.50;98969.54;220348;1279;138638;-59
2022/02/03 21:57:23;;;;;;;23.10;10.80;;;;;;;3.90;59.49;98967.27;220578;1280;138809;-59
2022/02/03 22:02:27;;;;;;;23.40;10.30;;;;;;;3.87;59.53;98967.54;220901;1277;139117;-56
2022/02/03 22:07:30;;;;;;;24.70;10.80;;;;;;;3.84;59.34;98962.39;220872;1279;138922;-58
2022/02/03 22:12:33;;;;;;;25.30;10.80;;;;;;;3.83;59.43;98961.02;220795;1279;139439;-59
2022/02/03 22:17:37;;;;;;;21.70;11.00;;;;;;;3.81;59.40;98960.05;220723;1279;140208;-58
2022/02/03 22:23:04;;;;;;;22.70;10.50;;;;;;;3.79;59.58;98956.61;220821;1279;139033;-60
2022/02/03 22:43:59;;;;;;;19.80;11.10;;;;;;;3.82;59.57;98953.89;220763;1279;138868;-58
2022/02/03 22:49:04;;;;;;;24.00;11.30;;;;;;;3.82;59.57;98962.48;220866;1279;138833;-57
2022/02/03 22:54:09;;;;;;;26.40;11.80;;;;;;;3.85;59.46;98962.02;220478;1280;142382;-57
2022/02/03 23:04:25;;;;;;;23.90;11.60;;;;;;;3.89;59.67;98956.77;220749;1279;139812;-56
2022/02/03 23:09:44;;;;;;;24.20;12.60;;;;;;;3.90;59.54;98961.30;220855;1279;138911;-58
2022/02/03 23:20:05;;;;;;;27.40;13.60;;;;;;;3.95;59.65;98956.38;220789;1279;139249;-56
2022/02/03 23:25:13;;;;;;;25.70;14.80;;;;;;;3.99;59.81;98955.02;220808;1279;140998;-55
2022/02/03 23:30:20;;;;;;;35.10;18.50;;;;;;;4.00;59.93;98958.82;220758;1278;139524;-56
2022/02/03 23:35:27;;;;;;;37.90;20.10;;;;;;;3.98;59.89;98963.45;220754;1280;138880;-56
2022/02/03 23:46:17;;;;;;;34.60;18.60;;;;;;;4.00;59.90;98959.89;220860;1280;139760;-57
2022/02/03 23:51:51;;;;;;;36.30;17.20;;;;;;;4.00;60.23;98955.48;220953;1278;139436;-58
